Raiatea — V7VA3 — position and weather

sailwx.info

Track history (hours):
 
Tides and Currents Weather Stations Pressure Air Temp Water Temp Dewpoint Dewpoint Depression Visibility Wind Speed Wind Dir Waves Ship Positions

Raiatea

Last reported at 2015-Jun-18 05:12 UTC. Time now 2015-Jul-08 00:08 UTC.
Position N 37°12' E 123°35'.
Warning: this ship's position is 19 days out of date.

Length 292 m; draft 6.4 m.

Type: Cargo ship. MMSI: 538004070.

Date/timePositionNaut miles runAvg speedWind from/ knotsBaromVisibWave heightAir tempDewpointWater temp
2015-Jun-18 05:12N 37°12' E 123°35'912.7
2015-Jun-18 04:31N 37°20' E 123°33'4210.4
2015-Jun-18 00:30N 37°51' E 122°58'1010.5
2015-Jun-17 23:32N 37°55' E 122°46'2211.0
2015-Jun-17 21:33N 38°04' E 122°21'1211.8
2015-Jun-17 20:33N 38°08' E 122°07'1211.9
2015-Jun-17 19:33N 38°12' E 121°53'1212.0
2015-Jun-17 18:33N 38°16' E 121°38'1211.6
2015-Jun-17 17:34N 38°20' E 121°24'1211.6
2015-Jun-17 16:33N 38°26' E 121°11'4510.1
2015-Jun-17 12:05N 39°01' E 120°35'1 2.0
2015-Jun-17 11:23N 39°02' E 120°34'3 3.8
2015-Jun-17 10:33N 39°04' E 120°31'1210.9
2015-Jun-17 09:29N 39°14' E 120°23'1010.8
2015-Jun-17 08:31N 39°23' E 120°16'1010.0
2015-Jun-17 07:33N 39°32' E 120°10'10 9.7
2015-Jun-17 06:33N 39°40' E 120°03'10 9.6
2015-Jun-17 05:34N 39°48' E 119°56'8 7.7
2015-Jun-17 04:33N 39°54' E 119°50'5 4.7
2015-Jun-17 03:33N 39°58' E 119°50'0 0.2
2015-Jun-17 02:29N 39°58' E 119°50'0 0.0
2015-Jun-17 01:29N 39°58' E 119°50'0 0.0
2015-Jun-17 00:29N 39°58' E 119°50'0 0.0
2015-Jun-16 23:29N 39°58' E 119°50'0 0.0
2015-Jun-16 22:29N 39°58' E 119°50'0 0.0
2015-Jun-16 21:29N 39°58' E 119°50'0 0.0
2015-Jun-16 20:29N 39°58' E 119°50'0 0.0
2015-Jun-16 19:29N 39°58' E 119°50'0 0.0
2015-Jun-16 18:29N 39°58' E 119°50'0 0.0
2015-Jun-16 17:29N 39°58' E 119°50'0 0.0
2015-Jun-16 16:29N 39°58' E 119°50'0 0.0
2015-Jun-16 15:29N 39°58' E 119°50'0 0.0
2015-Jun-16 14:23N 39°58' E 119°50'0 0.0
2015-Jun-16 13:29N 39°58' E 119°50'0 0.0
2015-Jun-16 12:30N 39°58' E 119°50'0 0.0
2015-Jun-16 11:29N 39°58' E 119°50'0 0.0
2015-Jun-16 10:29N 39°58' E 119°50'0 0.0
2015-Jun-16 09:29N 39°58' E 119°50'0 0.0
2015-Jun-16 08:29N 39°58' E 119°50'0 0.0
2015-Jun-16 07:17N 39°58' E 119°50'0 0.0
2015-Jun-16 06:29N 39°58' E 119°50'0 0.0
2015-Jun-16 05:23N 39°58' E 119°50'0 0.0
2015-Jun-16 04:29N 39°58' E 119°50'0 0.0
2015-Jun-16 03:29N 39°58' E 119°50'0 0.0
2015-Jun-16 02:29N 39°58' E 119°50'0 0.0
2015-Jun-16 01:29N 39°58' E 119°50'0 0.0
2015-Jun-16 00:29N 39°58' E 119°50'0 0.0
2015-Jun-15 23:29N 39°58' E 119°50'0 0.0
2015-Jun-15 22:29N 39°58' E 119°50'0 0.0
2015-Jun-15 21:29N 39°58' E 119°50'0 0.0
2015-Jun-15 20:29N 39°58' E 119°50'0 0.0
2015-Jun-15 19:29N 39°58' E 119°50'0 0.0
2015-Jun-15 18:29N 39°58' E 119°50'0 0.0
2015-Jun-15 17:29N 39°58' E 119°50'0 0.0
2015-Jun-15 16:29N 39°58' E 119°50'0 0.0
2015-Jun-15 15:29N 39°58' E 119°50'0 0.0
2015-Jun-15 14:29N 39°58' E 119°50'0 0.0
2015-Jun-15 13:29N 39°58' E 119°50'0 0.0
2015-Jun-15 12:29N 39°58' E 119°50'0 0.0
2015-Jun-15 11:29N 39°58' E 119°50'0 0.0
2015-Jun-15 10:23N 39°58' E 119°50'0 0.0
2015-Jun-15 09:29N 39°58' E 119°50'0 0.0
2015-Jun-15 08:29N 39°58' E 119°50'0 0.0
2015-Jun-15 07:29N 39°58' E 119°50'0 0.0
2015-Jun-15 06:29N 39°58' E 119°50'0 0.0
2015-Jun-15 05:29N 39°58' E 119°50'0 0.0
2015-Jun-15 04:29N 39°58' E 119°50'0 0.0
2015-Jun-15 03:29N 39°58' E 119°50'0 0.0
2015-Jun-15 02:29N 39°58' E 119°50'0 0.0
2015-Jun-15 01:29N 39°58' E 119°50'0 0.0
2015-Jun-15 00:29N 39°58' E 119°50'0 0.0
2015-Jun-14 23:29N 39°58' E 119°50'0 0.0
2015-Jun-14 22:29N 39°58' E 119°50'0 0.0
2015-Jun-14 21:29N 39°58' E 119°50'0 0.0
2015-Jun-14 20:29N 39°58' E 119°50'0 0.0
2015-Jun-14 19:29N 39°58' E 119°50'0 0.0
2015-Jun-14 18:29N 39°58' E 119°50'0 0.0
2015-Jun-14 17:29N 39°58' E 119°50'0 0.0
2015-Jun-14 16:29N 39°58' E 119°50'0 0.0
2015-Jun-14 15:29N 39°58' E 119°50'0 0.0
2015-Jun-14 14:29N 39°58' E 119°50'0 0.0
2015-Jun-14 13:29N 39°58' E 119°50'0 0.0
2015-Jun-14 12:29N 39°58' E 119°50'0 0.0
2015-Jun-14 11:29N 39°58' E 119°50'0 0.0
2015-Jun-14 10:29N 39°58' E 119°50'0 0.0
2015-Jun-14 09:29N 39°58' E 119°50'0 0.0
2015-Jun-14 08:29N 39°58' E 119°50'0 0.0
2015-Jun-14 07:29N 39°58' E 119°50'0 0.0
2015-Jun-14 06:29N 39°58' E 119°50'0 0.0
2015-Jun-14 05:29N 39°58' E 119°50'0 0.0
2015-Jun-14 04:29N 39°58' E 119°50'0 0.0
2015-Jun-14 03:29N 39°58' E 119°50'0 0.0
2015-Jun-14 02:29N 39°58' E 119°50'0 0.0
2015-Jun-14 01:29N 39°58' E 119°50'0 0.0
2015-Jun-14 00:29N 39°58' E 119°50'0 0.0
2015-Jun-13 23:29N 39°58' E 119°50'0 0.0
2015-Jun-13 22:29N 39°58' E 119°50'0 0.0
2015-Jun-13 21:29N 39°58' E 119°50'0 0.0
2015-Jun-13 20:29N 39°58' E 119°50'0 0.0
2015-Jun-13 19:23N 39°58' E 119°50'0 0.0
2015-Jun-13 18:29N 39°58' E 119°50'0 0.0
2015-Jun-13 17:29N 39°58' E 119°50'0 0.0
2015-Jun-13 16:23N 39°58' E 119°50'0 0.0
2015-Jun-13 15:29N 39°58' E 119°50'0 0.0
2015-Jun-13 14:29N 39°58' E 119°50'0 0.0
2015-Jun-13 13:29N 39°58' E 119°50'0 0.0
2015-Jun-13 12:30N 39°58' E 119°50'0 0.0
2015-Jun-13 11:29N 39°58' E 119°50'0 0.0
2015-Jun-13 10:29N 39°58' E 119°50'0 0.0
2015-Jun-13 09:29N 39°58' E 119°50'0 0.0
2015-Jun-13 08:29N 39°58' E 119°50'0 0.3
2015-Jun-13 07:29N 39°59' E 119°50'  
Track history (hours):
 
Tides and Currents Weather Stations Pressure Air Temp Water Temp Dewpoint Dewpoint Depression Visibility Wind Speed Wind Dir Waves Ship Positions

Raiatea

Last reported at 2015-Jun-18 05:12 UTC. Time now 2015-Jul-08 00:08 UTC.
Position N 37°12' E 123°35'.
Warning: this ship's position is 19 days out of date.

Length 292 m; draft 6.4 m.

Type: Cargo ship. MMSI: 538004070.

Date/timePositionNaut miles runAvg speedWind from/ knotsBaromVisibWave heightAir tempDewpointWater temp
2015-Jun-18 05:12N 37°12' E 123°35'912.7
2015-Jun-18 04:31N 37°20' E 123°33'4210.4
2015-Jun-18 00:30N 37°51' E 122°58'1010.5
2015-Jun-17 23:32N 37°55' E 122°46'2211.0
2015-Jun-17 21:33N 38°04' E 122°21'1211.8
2015-Jun-17 20:33N 38°08' E 122°07'1211.9
2015-Jun-17 19:33N 38°12' E 121°53'1212.0
2015-Jun-17 18:33N 38°16' E 121°38'1211.6
2015-Jun-17 17:34N 38°20' E 121°24'1211.6
2015-Jun-17 16:33N 38°26' E 121°11'4510.1
2015-Jun-17 12:05N 39°01' E 120°35'1 2.0
2015-Jun-17 11:23N 39°02' E 120°34'3 3.8
2015-Jun-17 10:33N 39°04' E 120°31'1210.9
2015-Jun-17 09:29N 39°14' E 120°23'1010.8
2015-Jun-17 08:31N 39°23' E 120°16'1010.0
2015-Jun-17 07:33N 39°32' E 120°10'10 9.7
2015-Jun-17 06:33N 39°40' E 120°03'10 9.6
2015-Jun-17 05:34N 39°48' E 119°56'8 7.7
2015-Jun-17 04:33N 39°54' E 119°50'5 4.7
2015-Jun-17 03:33N 39°58' E 119°50'0 0.2
2015-Jun-17 02:29N 39°58' E 119°50'0 0.0
2015-Jun-17 01:29N 39°58' E 119°50'0 0.0
2015-Jun-17 00:29N 39°58' E 119°50'0 0.0
2015-Jun-16 23:29N 39°58' E 119°50'0 0.0
2015-Jun-16 22:29N 39°58' E 119°50'0 0.0
2015-Jun-16 21:29N 39°58' E 119°50'0 0.0
2015-Jun-16 20:29N 39°58' E 119°50'0 0.0
2015-Jun-16 19:29N 39°58' E 119°50'0 0.0
2015-Jun-16 18:29N 39°58' E 119°50'0 0.0
2015-Jun-16 17:29N 39°58' E 119°50'0 0.0
2015-Jun-16 16:29N 39°58' E 119°50'0 0.0
2015-Jun-16 15:29N 39°58' E 119°50'0 0.0
2015-Jun-16 14:23N 39°58' E 119°50'0 0.0
2015-Jun-16 13:29N 39°58' E 119°50'0 0.0
2015-Jun-16 12:30N 39°58' E 119°50'0 0.0
2015-Jun-16 11:29N 39°58' E 119°50'0 0.0
2015-Jun-16 10:29N 39°58' E 119°50'0 0.0
2015-Jun-16 09:29N 39°58' E 119°50'0 0.0
2015-Jun-16 08:29N 39°58' E 119°50'0 0.0
2015-Jun-16 07:17N 39°58' E 119°50'0 0.0
2015-Jun-16 06:29N 39°58' E 119°50'0 0.0
2015-Jun-16 05:23N 39°58' E 119°50'0 0.0
2015-Jun-16 04:29N 39°58' E 119°50'0 0.0
2015-Jun-16 03:29N 39°58' E 119°50'0 0.0
2015-Jun-16 02:29N 39°58' E 119°50'0 0.0
2015-Jun-16 01:29N 39°58' E 119°50'0 0.0
2015-Jun-16 00:29N 39°58' E 119°50'0 0.0
2015-Jun-15 23:29N 39°58' E 119°50'0 0.0
2015-Jun-15 22:29N 39°58' E 119°50'0 0.0
2015-Jun-15 21:29N 39°58' E 119°50'0 0.0
2015-Jun-15 20:29N 39°58' E 119°50'0 0.0
2015-Jun-15 19:29N 39°58' E 119°50'0 0.0
2015-Jun-15 18:29N 39°58' E 119°50'0 0.0
2015-Jun-15 17:29N 39°58' E 119°50'0 0.0
2015-Jun-15 16:29N 39°58' E 119°50'0 0.0
2015-Jun-15 15:29N 39°58' E 119°50'0 0.0
2015-Jun-15 14:29N 39°58' E 119°50'0 0.0
2015-Jun-15 13:29N 39°58' E 119°50'0 0.0
2015-Jun-15 12:29N 39°58' E 119°50'0 0.0
2015-Jun-15 11:29N 39°58' E 119°50'0 0.0
2015-Jun-15 10:23N 39°58' E 119°50'0 0.0
2015-Jun-15 09:29N 39°58' E 119°50'0 0.0
2015-Jun-15 08:29N 39°58' E 119°50'0 0.0
2015-Jun-15 07:29N 39°58' E 119°50'0 0.0
2015-Jun-15 06:29N 39°58' E 119°50'0 0.0
2015-Jun-15 05:29N 39°58' E 119°50'0 0.0
2015-Jun-15 04:29N 39°58' E 119°50'0 0.0
2015-Jun-15 03:29N 39°58' E 119°50'0 0.0
2015-Jun-15 02:29N 39°58' E 119°50'0 0.0
2015-Jun-15 01:29N 39°58' E 119°50'0 0.0
2015-Jun-15 00:29N 39°58' E 119°50'0 0.0
2015-Jun-14 23:29N 39°58' E 119°50'0 0.0
2015-Jun-14 22:29N 39°58' E 119°50'0 0.0
2015-Jun-14 21:29N 39°58' E 119°50'0 0.0
2015-Jun-14 20:29N 39°58' E 119°50'0 0.0
2015-Jun-14 19:29N 39°58' E 119°50'0 0.0
2015-Jun-14 18:29N 39°58' E 119°50'0 0.0
2015-Jun-14 17:29N 39°58' E 119°50'0 0.0
2015-Jun-14 16:29N 39°58' E 119°50'0 0.0
2015-Jun-14 15:29N 39°58' E 119°50'0 0.0
2015-Jun-14 14:29N 39°58' E 119°50'0 0.0
2015-Jun-14 13:29N 39°58' E 119°50'0 0.0
2015-Jun-14 12:29N 39°58' E 119°50'0 0.0
2015-Jun-14 11:29N 39°58' E 119°50'0 0.0
2015-Jun-14 10:29N 39°58' E 119°50'0 0.0
2015-Jun-14 09:29N 39°58' E 119°50'0 0.0
2015-Jun-14 08:29N 39°58' E 119°50'0 0.0
2015-Jun-14 07:29N 39°58' E 119°50'0 0.0
2015-Jun-14 06:29N 39°58' E 119°50'0 0.0
2015-Jun-14 05:29N 39°58' E 119°50'0 0.0
2015-Jun-14 04:29N 39°58' E 119°50'0 0.0
2015-Jun-14 03:29N 39°58' E 119°50'0 0.0
2015-Jun-14 02:29N 39°58' E 119°50'0 0.0
2015-Jun-14 01:29N 39°58' E 119°50'0 0.0
2015-Jun-14 00:29N 39°58' E 119°50'0 0.0
2015-Jun-13 23:29N 39°58' E 119°50'0 0.0
2015-Jun-13 22:29N 39°58' E 119°50'0 0.0
2015-Jun-13 21:29N 39°58' E 119°50'0 0.0
2015-Jun-13 20:29N 39°58' E 119°50'0 0.0
2015-Jun-13 19:23N 39°58' E 119°50'0 0.0
2015-Jun-13 18:29N 39°58' E 119°50'0 0.0
2015-Jun-13 17:29N 39°58' E 119°50'0 0.0
2015-Jun-13 16:23N 39°58' E 119°50'0 0.0
2015-Jun-13 15:29N 39°58' E 119°50'0 0.0
2015-Jun-13 14:29N 39°58' E 119°50'0 0.0
2015-Jun-13 13:29N 39°58' E 119°50'0 0.0
2015-Jun-13 12:30N 39°58' E 119°50'0 0.0
2015-Jun-13 11:29N 39°58' E 119°50'0 0.0
2015-Jun-13 10:29N 39°58' E 119°50'0 0.0
2015-Jun-13 09:29N 39°58' E 119°50'0 0.0
2015-Jun-13 08:29N 39°58' E 119°50'0 0.3
2015-Jun-13 07:29N 39°59' E 119°50'  

Dump ship's entire track history